Details for EasyJet at EGSS




Go Back


Latest METAR
Local Time

EGSS 181320Z AUTO 23014KT 9999 NCD 21/12 Q1009
18/09/2018, 14:26:05

Description
Results
EasyJet Logo
Number of Pilots based at EGSS
1 Pilots Based here
Number of EasyJet Flights Departed from EGSS
7 Flights Departed
Number of EasyJet Flights Arrived at EGSS
6 Flights Arrived
Number of EasyJet Schedules Departing from EGSS
109 Schedules
Number of EasyJet Schedules Arriving at EGSS
111 Schedules
Number of EasyJet Schedules Departing from EGSS availible today
34 Schedules Today
Number of EasyJet Schedules Arriving at EGSS availible today
34 Schedules Today
Average Landing Rate at EGSS
-215 fpm
EasyJet Average Landing Rate at EGSS
-233 fpm
Total Fuel Purchased at EGSS by EasyJet
17,105.03 kgs / 37,709.75 lbs

Pilots Based at EGSS


Pilot ID
Pilot Name
Pilot Rank
No. of Flights
No. of Flying Hours
Joerg Pfeiffer
42
55.02
Content